sensor_id;sensor_type;location;lat;lon;timestamp;P1;durP1;ratioP1;P2;durP2;ratioP2
14247;SDS011;7208;49.826;6.004;2023-05-14T00:01:38;5.30;;;4.80;;
14247;SDS011;7208;49.826;6.004;2023-05-14T00:04:04;4.27;;;3.97;;
14247;SDS011;7208;49.826;6.004;2023-05-14T00:06:30;5.30;;;4.90;;
14247;SDS011;7208;49.826;6.004;2023-05-14T00:08:56;6.90;;;4.57;;
14247;SDS011;7208;49.826;6.004;2023-05-14T00:11:22;4.67;;;4.27;;
14247;SDS011;7208;49.826;6.004;2023-05-14T00:13:49;5.07;;;4.60;;
14247;SDS011;7208;49.826;6.004;2023-05-14T00:16:15;4.00;;;3.70;;
14247;SDS011;7208;49.826;6.004;2023-05-14T00:18:41;4.80;;;4.40;;
14247;SDS011;7208;49.826;6.004;2023-05-14T00:21:07;4.87;;;4.33;;
14247;SDS011;7208;49.826;6.004;2023-05-14T00:23:33;5.13;;;4.73;;
14247;SDS011;7208;49.826;6.004;2023-05-14T00:25:59;8.27;;;4.33;;
14247;SDS011;7208;49.826;6.004;2023-05-14T00:28:25;5.43;;;4.70;;
14247;SDS011;7208;49.826;6.004;2023-05-14T00:30:51;5.70;;;5.20;;
14247;SDS011;7208;49.826;6.004;2023-05-14T00:33:17;5.20;;;4.80;;
14247;SDS011;7208;49.826;6.004;2023-05-14T00:35:43;5.37;;;4.93;;
14247;SDS011;7208;49.826;6.004;2023-05-14T00:38:09;5.47;;;4.97;;
14247;SDS011;7208;49.826;6.004;2023-05-14T00:40:40;5.10;;;4.60;;
14247;SDS011;7208;49.826;6.004;2023-05-14T00:43:09;5.43;;;4.93;;
14247;SDS011;7208;49.826;6.004;2023-05-14T00:45:35;5.70;;;5.20;;
14247;SDS011;7208;49.826;6.004;2023-05-14T00:48:01;5.50;;;5.00;;
14247;SDS011;7208;49.826;6.004;2023-05-14T00:50:28;6.00;;;5.30;;
14247;SDS011;7208;49.826;6.004;2023-05-14T00:52:54;6.43;;;5.00;;
14247;SDS011;7208;49.826;6.004;2023-05-14T00:55:20;6.07;;;5.47;;
14247;SDS011;7208;49.826;6.004;2023-05-14T00:57:46;5.87;;;5.27;;
14247;SDS011;7208;49.826;6.004;2023-05-14T01:00:12;7.00;;;5.13;;
14247;SDS011;7208;49.826;6.004;2023-05-14T01:02:38;5.57;;;5.07;;
14247;SDS011;7208;49.826;6.004;2023-05-14T01:05:05;7.50;;;5.30;;
14247;SDS011;7208;49.826;6.004;2023-05-14T01:10:14;6.07;;;5.57;;
14247;SDS011;7208;49.826;6.004;2023-05-14T01:17:35;7.03;;;5.67;;
14247;SDS011;7208;49.826;6.004;2023-05-14T01:20:03;5.63;;;5.13;;
14247;SDS011;7208;49.826;6.004;2023-05-14T01:22:29;5.87;;;5.00;;
14247;SDS011;7208;49.826;6.004;2023-05-14T01:24:55;7.83;;;5.90;;
14247;SDS011;7208;49.826;6.004;2023-05-14T01:27:28;8.17;;;5.73;;
14247;SDS011;7208;49.826;6.004;2023-05-14T01:30:12;6.53;;;5.93;;
14247;SDS011;7208;49.826;6.004;2023-05-14T01:32:40;5.80;;;5.30;;
14247;SDS011;7208;49.826;6.004;2023-05-14T01:35:07;6.03;;;5.53;;
14247;SDS011;7208;49.826;6.004;2023-05-14T01:37:34;6.33;;;5.83;;
14247;SDS011;7208;49.826;6.004;2023-05-14T01:40:01;6.70;;;5.27;;
14247;SDS011;7208;49.826;6.004;2023-05-14T01:42:27;5.87;;;5.40;;
14247;SDS011;7208;49.826;6.004;2023-05-14T01:44:53;6.63;;;6.03;;
14247;SDS011;7208;49.826;6.004;2023-05-14T01:47:19;5.73;;;5.03;;
14247;SDS011;7208;49.826;6.004;2023-05-14T01:49:45;10.00;;;5.57;;
14247;SDS011;7208;49.826;6.004;2023-05-14T01:52:11;5.83;;;5.33;;
14247;SDS011;7208;49.826;6.004;2023-05-14T01:54:37;6.17;;;5.67;;
14247;SDS011;7208;49.826;6.004;2023-05-14T01:57:03;6.33;;;5.83;;
14247;SDS011;7208;49.826;6.004;2023-05-14T01:59:29;6.47;;;5.87;;
14247;SDS011;7208;49.826;6.004;2023-05-14T02:01:55;7.40;;;6.00;;
14247;SDS011;7208;49.826;6.004;2023-05-14T02:04:21;6.93;;;6.30;;
14247;SDS011;7208;49.826;6.004;2023-05-14T02:06:47;7.70;;;6.90;;
14247;SDS011;7208;49.826;6.004;2023-05-14T02:09:13;7.67;;;6.93;;
14247;SDS011;7208;49.826;6.004;2023-05-14T02:11:39;7.37;;;6.67;;
14247;SDS011;7208;49.826;6.004;2023-05-14T02:14:05;7.80;;;7.10;;
14247;SDS011;7208;49.826;6.004;2023-05-14T02:16:31;8.20;;;7.37;;
14247;SDS011;7208;49.826;6.004;2023-05-14T02:18:57;7.70;;;6.73;;
14247;SDS011;7208;49.826;6.004;2023-05-14T02:21:23;7.90;;;7.27;;
14247;SDS011;7208;49.826;6.004;2023-05-14T02:23:49;7.63;;;6.93;;
14247;SDS011;7208;49.826;6.004;2023-05-14T02:26:15;7.10;;;6.53;;
14247;SDS011;7208;49.826;6.004;2023-05-14T02:28:41;7.53;;;6.83;;
14247;SDS011;7208;49.826;6.004;2023-05-14T02:31:07;6.97;;;6.43;;
14247;SDS011;7208;49.826;6.004;2023-05-14T02:33:33;7.63;;;6.90;;
14247;SDS011;7208;49.826;6.004;2023-05-14T02:35:59;7.63;;;7.03;;
14247;SDS011;7208;49.826;6.004;2023-05-14T02:38:25;6.80;;;6.20;;
14247;SDS011;7208;49.826;6.004;2023-05-14T02:40:51;7.57;;;6.97;;
14247;SDS011;7208;49.826;6.004;2023-05-14T02:43:17;6.93;;;6.33;;
14247;SDS011;7208;49.826;6.004;2023-05-14T02:45:43;7.93;;;7.23;;
14247;SDS011;7208;49.826;6.004;2023-05-14T02:48:09;9.43;;;6.83;;
14247;SDS011;7208;49.826;6.004;2023-05-14T02:50:35;7.67;;;6.97;;
14247;SDS011;7208;49.826;6.004;2023-05-14T02:53:01;7.57;;;6.97;;
14247;SDS011;7208;49.826;6.004;2023-05-14T02:55:27;7.70;;;6.70;;
14247;SDS011;7208;49.826;6.004;2023-05-14T02:57:53;7.80;;;7.10;;
14247;SDS011;7208;49.826;6.004;2023-05-14T03:00:20;8.77;;;6.20;;
14247;SDS011;7208;49.826;6.004;2023-05-14T03:02:46;7.43;;;6.73;;
14247;SDS011;7208;49.826;6.004;2023-05-14T03:05:12;8.50;;;6.67;;
14247;SDS011;7208;49.826;6.004;2023-05-14T03:07:38;6.33;;;5.83;;
14247;SDS011;7208;49.826;6.004;2023-05-14T03:10:05;7.53;;;6.83;;
14247;SDS011;7208;49.826;6.004;2023-05-14T03:12:31;6.87;;;6.27;;
14247;SDS011;7208;49.826;6.004;2023-05-14T03:14:57;7.33;;;6.63;;
14247;SDS011;7208;49.826;6.004;2023-05-14T03:17:23;9.30;;;6.80;;
14247;SDS011;7208;49.826;6.004;2023-05-14T03:19:49;6.53;;;6.00;;
14247;SDS011;7208;49.826;6.004;2023-05-14T03:22:15;7.73;;;7.03;;
14247;SDS011;7208;49.826;6.004;2023-05-14T03:24:41;7.33;;;6.67;;
14247;SDS011;7208;49.826;6.004;2023-05-14T03:27:07;7.83;;;7.13;;
14247;SDS011;7208;49.826;6.004;2023-05-14T03:29:33;8.30;;;7.50;;
14247;SDS011;7208;49.826;6.004;2023-05-14T03:31:59;8.07;;;7.27;;
14247;SDS011;7208;49.826;6.004;2023-05-14T03:34:25;9.40;;;7.53;;
14247;SDS011;7208;49.826;6.004;2023-05-14T03:36:51;8.97;;;7.97;;
14247;SDS011;7208;49.826;6.004;2023-05-14T03:39:17;9.07;;;8.37;;
14247;SDS011;7208;49.826;6.004;2023-05-14T03:41:46;9.13;;;7.70;;
14247;SDS011;7208;49.826;6.004;2023-05-14T03:44:12;8.90;;;8.20;;
14247;SDS011;7208;49.826;6.004;2023-05-14T03:46:38;9.17;;;8.27;;
14247;SDS011;7208;49.826;6.004;2023-05-14T03:49:04;8.80;;;7.70;;
14247;SDS011;7208;49.826;6.004;2023-05-14T03:51:31;10.70;;;8.33;;
14247;SDS011;7208;49.826;6.004;2023-05-14T03:53:57;10.43;;;8.20;;
14247;SDS011;7208;49.826;6.004;2023-05-14T03:56:23;9.00;;;8.20;;
14247;SDS011;7208;49.826;6.004;2023-05-14T03:58:50;9.87;;;8.67;;
14247;SDS011;7208;49.826;6.004;2023-05-14T04:01:17;9.27;;;8.47;;
14247;SDS011;7208;49.826;6.004;2023-05-14T04:03:43;10.60;;;8.87;;
14247;SDS011;7208;49.826;6.004;2023-05-14T04:06:09;9.13;;;8.33;;
14247;SDS011;7208;49.826;6.004;2023-05-14T04:08:35;9.40;;;8.60;;
14247;SDS011;7208;49.826;6.004;2023-05-14T04:11:01;10.03;;;9.17;;
14247;SDS011;7208;49.826;6.004;2023-05-14T04:13:27;9.53;;;8.73;;
14247;SDS011;7208;49.826;6.004;2023-05-14T04:15:52;11.07;;;8.33;;
14247;SDS011;7208;49.826;6.004;2023-05-14T04:18:18;8.70;;;7.77;;
14247;SDS011;7208;49.826;6.004;2023-05-14T04:20:44;9.20;;;8.40;;
14247;SDS011;7208;49.826;6.004;2023-05-14T04:23:10;9.33;;;8.53;;
14247;SDS011;7208;49.826;6.004;2023-05-14T04:25:36;9.00;;;8.17;;
14247;SDS011;7208;49.826;6.004;2023-05-14T04:28:02;9.77;;;7.57;;
14247;SDS011;7208;49.826;6.004;2023-05-14T04:30:28;9.17;;;8.37;;
14247;SDS011;7208;49.826;6.004;2023-05-14T04:32:54;9.67;;;8.87;;
14247;SDS011;7208;49.826;6.004;2023-05-14T04:35:20;9.00;;;8.10;;
14247;SDS011;7208;49.826;6.004;2023-05-14T04:37:46;9.10;;;8.37;;
14247;SDS011;7208;49.826;6.004;2023-05-14T04:40:13;9.17;;;8.37;;
14247;SDS011;7208;49.826;6.004;2023-05-14T04:42:40;9.73;;;8.83;;
14247;SDS011;7208;49.826;6.004;2023-05-14T04:45:06;9.07;;;8.17;;
14247;SDS011;7208;49.826;6.004;2023-05-14T04:47:33;9.00;;;8.20;;
14247;SDS011;7208;49.826;6.004;2023-05-14T04:49:59;10.33;;;9.13;;
14247;SDS011;7208;49.826;6.004;2023-05-14T04:52:25;10.97;;;8.70;;
14247;SDS011;7208;49.826;6.004;2023-05-14T04:54:51;9.20;;;8.40;;
14247;SDS011;7208;49.826;6.004;2023-05-14T04:57:17;9.00;;;8.13;;
14247;SDS011;7208;49.826;6.004;2023-05-14T04:59:43;9.20;;;8.40;;
14247;SDS011;7208;49.826;6.004;2023-05-14T05:02:09;9.63;;;8.80;;
14247;SDS011;7208;49.826;6.004;2023-05-14T05:04:35;9.43;;;8.57;;
14247;SDS011;7208;49.826;6.004;2023-05-14T05:07:01;9.73;;;8.90;;
14247;SDS011;7208;49.826;6.004;2023-05-14T05:09:27;10.73;;;8.30;;
14247;SDS011;7208;49.826;6.004;2023-05-14T05:11:53;9.00;;;8.20;;
14247;SDS011;7208;49.826;6.004;2023-05-14T05:14:19;9.07;;;8.37;;
14247;SDS011;7208;49.826;6.004;2023-05-14T05:16:46;8.83;;;7.97;;
14247;SDS011;7208;49.826;6.004;2023-05-14T05:19:12;9.30;;;8.40;;
14247;SDS011;7208;49.826;6.004;2023-05-14T05:21:38;9.47;;;8.73;;
14247;SDS011;7208;49.826;6.004;2023-05-14T05:24:05;8.87;;;8.07;;
14247;SDS011;7208;49.826;6.004;2023-05-14T05:26:31;9.73;;;8.83;;
14247;SDS011;7208;49.826;6.004;2023-05-14T05:29:00;9.63;;;8.43;;
14247;SDS011;7208;49.826;6.004;2023-05-14T05:31:26;9.43;;;8.53;;
14247;SDS011;7208;49.826;6.004;2023-05-14T05:33:52;9.70;;;8.73;;
14247;SDS011;7208;49.826;6.004;2023-05-14T05:36:18;10.03;;;9.10;;
14247;SDS011;7208;49.826;6.004;2023-05-14T05:38:44;8.80;;;8.10;;
14247;SDS011;7208;49.826;6.004;2023-05-14T05:41:10;8.63;;;7.90;;
14247;SDS011;7208;49.826;6.004;2023-05-14T05:43:36;9.07;;;8.27;;
14247;SDS011;7208;49.826;6.004;2023-05-14T05:46:02;9.27;;;8.37;;
14247;SDS011;7208;49.826;6.004;2023-05-14T05:48:28;8.20;;;7.50;;
14247;SDS011;7208;49.826;6.004;2023-05-14T05:50:54;8.97;;;8.17;;
14247;SDS011;7208;49.826;6.004;2023-05-14T05:53:20;8.87;;;8.07;;
14247;SDS011;7208;49.826;6.004;2023-05-14T05:55:46;9.00;;;8.30;;
14247;SDS011;7208;49.826;6.004;2023-05-14T05:58:15;8.73;;;8.03;;
14247;SDS011;7208;49.826;6.004;2023-05-14T06:00:41;8.77;;;8.00;;
14247;SDS011;7208;49.826;6.004;2023-05-14T06:03:07;8.03;;;7.30;;
14247;SDS011;7208;49.826;6.004;2023-05-14T06:05:33;7.90;;;7.17;;
14247;SDS011;7208;49.826;6.004;2023-05-14T06:08:00;8.63;;;7.87;;
14247;SDS011;7208;49.826;6.004;2023-05-14T06:10:26;8.33;;;7.67;;
14247;SDS011;7208;49.826;6.004;2023-05-14T06:12:52;8.43;;;7.63;;
14247;SDS011;7208;49.826;6.004;2023-05-14T06:15:18;7.80;;;7.20;;
14247;SDS011;7208;49.826;6.004;2023-05-14T06:17:44;8.30;;;7.60;;
14247;SDS011;7208;49.826;6.004;2023-05-14T06:20:10;8.50;;;7.53;;
14247;SDS011;7208;49.826;6.004;2023-05-14T06:22:36;7.90;;;7.20;;
14247;SDS011;7208;49.826;6.004;2023-05-14T06:25:02;7.70;;;7.00;;
14247;SDS011;7208;49.826;6.004;2023-05-14T06:27:29;7.63;;;7.00;;
14247;SDS011;7208;49.826;6.004;2023-05-14T06:29:55;7.07;;;6.47;;
14247;SDS011;7208;49.826;6.004;2023-05-14T06:32:21;6.50;;;6.00;;
14247;SDS011;7208;49.826;6.004;2023-05-14T06:34:47;6.60;;;6.00;;
14247;SDS011;7208;49.826;6.004;2023-05-14T06:37:13;6.40;;;5.80;;
14247;SDS011;7208;49.826;6.004;2023-05-14T06:39:39;6.27;;;5.80;;
14247;SDS011;7208;49.826;6.004;2023-05-14T06:42:12;6.63;;;6.13;;
14247;SDS011;7208;49.826;6.004;2023-05-14T06:44:38;6.17;;;5.57;;
14247;SDS011;7208;49.826;6.004;2023-05-14T06:47:04;6.20;;;5.70;;
14247;SDS011;7208;49.826;6.004;2023-05-14T06:49:32;5.90;;;5.40;;
14247;SDS011;7208;49.826;6.004;2023-05-14T06:51:58;5.73;;;5.30;;
14247;SDS011;7208;49.826;6.004;2023-05-14T06:54:24;6.37;;;5.27;;
14247;SDS011;7208;49.826;6.004;2023-05-14T06:56:50;5.70;;;4.63;;
14247;SDS011;7208;49.826;6.004;2023-05-14T06:59:16;7.40;;;5.90;;
14247;SDS011;7208;49.826;6.004;2023-05-14T07:01:43;5.60;;;5.20;;
14247;SDS011;7208;49.826;6.004;2023-05-14T07:04:09;4.87;;;4.47;;
14247;SDS011;7208;49.826;6.004;2023-05-14T07:06:34;5.37;;;4.97;;
14247;SDS011;7208;49.826;6.004;2023-05-14T07:09:00;5.23;;;4.83;;
14247;SDS011;7208;49.826;6.004;2023-05-14T07:11:27;5.20;;;4.80;;
14247;SDS011;7208;49.826;6.004;2023-05-14T07:13:53;7.57;;;5.10;;
14247;SDS011;7208;49.826;6.004;2023-05-14T07:16:19;5.17;;;4.73;;
14247;SDS011;7208;49.826;6.004;2023-05-14T07:18:45;5.77;;;5.10;;
14247;SDS011;7208;49.826;6.004;2023-05-14T07:21:11;5.93;;;5.53;;
14247;SDS011;7208;49.826;6.004;2023-05-14T07:23:37;5.10;;;4.70;;
14247;SDS011;7208;49.826;6.004;2023-05-14T07:26:03;5.57;;;5.07;;
14247;SDS011;7208;49.826;6.004;2023-05-14T07:28:29;5.10;;;4.60;;
14247;SDS011;7208;49.826;6.004;2023-05-14T07:30:55;4.90;;;4.50;;
14247;SDS011;7208;49.826;6.004;2023-05-14T07:33:21;5.27;;;4.87;;
14247;SDS011;7208;49.826;6.004;2023-05-14T07:35:47;5.30;;;4.90;;
14247;SDS011;7208;49.826;6.004;2023-05-14T07:38:13;5.33;;;4.93;;
14247;SDS011;7208;49.826;6.004;2023-05-14T07:40:40;6.03;;;4.53;;
14247;SDS011;7208;49.826;6.004;2023-05-14T07:43:06;3.97;;;3.73;;
14247;SDS011;7208;49.826;6.004;2023-05-14T07:45:32;4.77;;;4.40;;
14247;SDS011;7208;49.826;6.004;2023-05-14T07:47:58;5.50;;;5.10;;
14247;SDS011;7208;49.826;6.004;2023-05-14T07:50:24;5.30;;;4.90;;
14247;SDS011;7208;49.826;6.004;2023-05-14T07:52:50;5.47;;;4.57;;
14247;SDS011;7208;49.826;6.004;2023-05-14T07:55:16;4.80;;;4.40;;
14247;SDS011;7208;49.826;6.004;2023-05-14T07:57:42;4.87;;;4.47;;
14247;SDS011;7208;49.826;6.004;2023-05-14T08:00:08;4.60;;;4.30;;
14247;SDS011;7208;49.826;6.004;2023-05-14T08:02:34;3.93;;;3.63;;
14247;SDS011;7208;49.826;6.004;2023-05-14T08:05:00;4.23;;;3.83;;
14247;SDS011;7208;49.826;6.004;2023-05-14T08:07:28;4.10;;;3.80;;
14247;SDS011;7208;49.826;6.004;2023-05-14T08:09:54;4.30;;;3.90;;
14247;SDS011;7208;49.826;6.004;2023-05-14T08:12:20;4.90;;;4.30;;
14247;SDS011;7208;49.826;6.004;2023-05-14T08:14:46;5.60;;;4.00;;
14247;SDS011;7208;49.826;6.004;2023-05-14T08:17:12;3.93;;;3.37;;
14247;SDS011;7208;49.826;6.004;2023-05-14T08:19:38;4.07;;;3.67;;
14247;SDS011;7208;49.826;6.004;2023-05-14T08:22:04;3.87;;;3.57;;
14247;SDS011;7208;49.826;6.004;2023-05-14T08:24:31;4.63;;;3.23;;
14247;SDS011;7208;49.826;6.004;2023-05-14T08:26:57;4.90;;;3.63;;
14247;SDS011;7208;49.826;6.004;2023-05-14T08:29:23;4.23;;;3.90;;
14247;SDS011;7208;49.826;6.004;2023-05-14T08:31:49;3.77;;;3.47;;
14247;SDS011;7208;49.826;6.004;2023-05-14T08:34:16;3.97;;;3.40;;
14247;SDS011;7208;49.826;6.004;2023-05-14T08:36:42;3.57;;;3.27;;
14247;SDS011;7208;49.826;6.004;2023-05-14T08:39:08;3.50;;;3.20;;
14247;SDS011;7208;49.826;6.004;2023-05-14T08:41:34;4.07;;;3.53;;
14247;SDS011;7208;49.826;6.004;2023-05-14T08:46:27;3.70;;;3.30;;
14247;SDS011;7208;49.826;6.004;2023-05-14T08:51:47;3.13;;;2.90;;
14247;SDS011;7208;49.826;6.004;2023-05-14T08:54:16;3.60;;;3.00;;
14247;SDS011;7208;49.826;6.004;2023-05-14T08:56:43;5.27;;;3.30;;
14247;SDS011;7208;49.826;6.004;2023-05-14T08:59:12;3.87;;;3.53;;
14247;SDS011;7208;49.826;6.004;2023-05-14T09:01:40;3.70;;;3.40;;
14247;SDS011;7208;49.826;6.004;2023-05-14T09:04:07;3.63;;;2.77;;
14247;SDS011;7208;49.826;6.004;2023-05-14T09:06:35;3.13;;;2.93;;
14247;SDS011;7208;49.826;6.004;2023-05-14T09:09:04;3.20;;;2.90;;
14247;SDS011;7208;49.826;6.004;2023-05-14T09:11:30;3.80;;;3.30;;
14247;SDS011;7208;49.826;6.004;2023-05-14T09:13:56;3.07;;;2.87;;
14247;SDS011;7208;49.826;6.004;2023-05-14T09:16:22;3.10;;;2.90;;
14247;SDS011;7208;49.826;6.004;2023-05-14T09:18:50;3.73;;;3.10;;
14247;SDS011;7208;49.826;6.004;2023-05-14T09:21:16;2.97;;;2.77;;
14247;SDS011;7208;49.826;6.004;2023-05-14T09:23:42;3.33;;;3.00;;
14247;SDS011;7208;49.826;6.004;2023-05-14T09:26:09;3.00;;;2.70;;
14247;SDS011;7208;49.826;6.004;2023-05-14T09:28:38;2.53;;;2.33;;
14247;SDS011;7208;49.826;6.004;2023-05-14T09:31:04;3.10;;;2.90;;
14247;SDS011;7208;49.826;6.004;2023-05-14T09:33:31;3.77;;;3.10;;
14247;SDS011;7208;49.826;6.004;2023-05-14T09:35:57;4.23;;;2.77;;
14247;SDS011;7208;49.826;6.004;2023-05-14T09:38:31;2.97;;;2.63;;
14247;SDS011;7208;49.826;6.004;2023-05-14T09:40:57;4.03;;;2.83;;
14247;SDS011;7208;49.826;6.004;2023-05-14T09:43:24;3.03;;;2.73;;
14247;SDS011;7208;49.826;6.004;2023-05-14T09:45:51;3.23;;;2.90;;
14247;SDS011;7208;49.826;6.004;2023-05-14T09:48:17;2.43;;;2.23;;
14247;SDS011;7208;49.826;6.004;2023-05-14T09:50:44;2.57;;;2.23;;
14247;SDS011;7208;49.826;6.004;2023-05-14T09:53:10;2.80;;;2.60;;
14247;SDS011;7208;49.826;6.004;2023-05-14T09:55:37;2.93;;;2.73;;
14247;SDS011;7208;49.826;6.004;2023-05-14T09:58:03;3.13;;;2.50;;
14247;SDS011;7208;49.826;6.004;2023-05-14T10:00:33;3.27;;;2.73;;
14247;SDS011;7208;49.826;6.004;2023-05-14T10:03:03;2.70;;;2.50;;
14247;SDS011;7208;49.826;6.004;2023-05-14T10:05:31;2.80;;;2.60;;
14247;SDS011;7208;49.826;6.004;2023-05-14T10:07:57;2.80;;;2.60;;
14247;SDS011;7208;49.826;6.004;2023-05-14T10:10:25;3.07;;;2.63;;
14247;SDS011;7208;49.826;6.004;2023-05-14T10:12:57;3.20;;;2.47;;
14247;SDS011;7208;49.826;6.004;2023-05-14T10:18:15;2.80;;;2.60;;
14247;SDS011;7208;49.826;6.004;2023-05-14T10:20:42;2.77;;;2.43;;
14247;SDS011;7208;49.826;6.004;2023-05-14T10:23:12;2.73;;;2.20;;
14247;SDS011;7208;49.826;6.004;2023-05-14T10:25:38;2.57;;;2.37;;
14247;SDS011;7208;49.826;6.004;2023-05-14T10:28:04;2.97;;;2.00;;
14247;SDS011;7208;49.826;6.004;2023-05-14T10:30:31;3.03;;;2.20;;
14247;SDS011;7208;49.826;6.004;2023-05-14T10:33:12;3.90;;;2.10;;
14247;SDS011;7208;49.826;6.004;2023-05-14T10:38:36;3.97;;;2.20;;
14247;SDS011;7208;49.826;6.004;2023-05-14T10:41:03;2.50;;;2.30;;
14247;SDS011;7208;49.826;6.004;2023-05-14T10:43:29;3.17;;;2.37;;
14247;SDS011;7208;49.826;6.004;2023-05-14T10:45:56;3.60;;;2.53;;
14247;SDS011;7208;49.826;6.004;2023-05-14T10:48:23;2.93;;;2.30;;
14247;SDS011;7208;49.826;6.004;2023-05-14T10:50:49;2.37;;;2.17;;
14247;SDS011;7208;49.826;6.004;2023-05-14T10:53:16;2.93;;;1.87;;
14247;SDS011;7208;49.826;6.004;2023-05-14T10:55:46;2.37;;;2.27;;
14247;SDS011;7208;49.826;6.004;2023-05-14T10:58:12;2.27;;;2.07;;
14247;SDS011;7208;49.826;6.004;2023-05-14T11:00:40;3.47;;;2.53;;
14247;SDS011;7208;49.826;6.004;2023-05-14T11:03:06;5.90;;;3.20;;
14247;SDS011;7208;49.826;6.004;2023-05-14T11:05:32;2.80;;;2.10;;
14247;SDS011;7208;49.826;6.004;2023-05-14T11:08:01;2.27;;;2.07;;
14247;SDS011;7208;49.826;6.004;2023-05-14T11:10:29;2.20;;;2.00;;
14247;SDS011;7208;49.826;6.004;2023-05-14T11:12:55;2.73;;;2.40;;
14247;SDS011;7208;49.826;6.004;2023-05-14T11:15:23;3.93;;;2.17;;
14247;SDS011;7208;49.826;6.004;2023-05-14T11:17:53;2.57;;;2.37;;
14247;SDS011;7208;49.826;6.004;2023-05-14T11:20:19;3.50;;;2.10;;
14247;SDS011;7208;49.826;6.004;2023-05-14T11:22:46;2.20;;;2.00;;
14247;SDS011;7208;49.826;6.004;2023-05-14T11:25:12;2.13;;;2.00;;
14247;SDS011;7208;49.826;6.004;2023-05-14T11:27:39;2.23;;;2.10;;
14247;SDS011;7208;49.826;6.004;2023-05-14T11:30:13;2.70;;;2.50;;
14247;SDS011;7208;49.826;6.004;2023-05-14T11:32:39;2.30;;;2.10;;
14247;SDS011;7208;49.826;6.004;2023-05-14T11:35:05;7.57;;;6.87;;
14247;SDS011;7208;49.826;6.004;2023-05-14T11:37:31;8.43;;;7.63;;
14247;SDS011;7208;49.826;6.004;2023-05-14T11:39:58;9.17;;;8.30;;
14247;SDS011;7208;49.826;6.004;2023-05-14T11:42:25;9.50;;;8.50;;
14247;SDS011;7208;49.826;6.004;2023-05-14T11:44:51;10.07;;;9.17;;
14247;SDS011;7208;49.826;6.004;2023-05-14T11:47:20;13.17;;;11.97;;
14247;SDS011;7208;49.826;6.004;2023-05-14T11:49:47;15.73;;;13.17;;
14247;SDS011;7208;49.826;6.004;2023-05-14T11:52:14;14.10;;;12.50;;
14247;SDS011;7208;49.826;6.004;2023-05-14T11:54:40;11.90;;;10.70;;
14247;SDS011;7208;49.826;6.004;2023-05-14T11:57:08;13.07;;;11.83;;
14247;SDS011;7208;49.826;6.004;2023-05-14T11:59:34;11.93;;;10.93;;
14247;SDS011;7208;49.826;6.004;2023-05-14T12:02:03;13.63;;;11.53;;
14247;SDS011;7208;49.826;6.004;2023-05-14T12:04:30;12.77;;;11.67;;
14247;SDS011;7208;49.826;6.004;2023-05-14T12:06:57;11.53;;;10.50;;
14247;SDS011;7208;49.826;6.004;2023-05-14T12:09:23;10.70;;;9.80;;
14247;SDS011;7208;49.826;6.004;2023-05-14T12:11:49;10.83;;;9.83;;
14247;SDS011;7208;49.826;6.004;2023-05-14T12:14:18;10.70;;;9.70;;
14247;SDS011;7208;49.826;6.004;2023-05-14T12:16:44;11.13;;;9.97;;
14247;SDS011;7208;49.826;6.004;2023-05-14T12:19:11;10.03;;;9.13;;
14247;SDS011;7208;49.826;6.004;2023-05-14T12:21:42;10.50;;;9.60;;
14247;SDS011;7208;49.826;6.004;2023-05-14T12:24:09;13.03;;;9.47;;
14247;SDS011;7208;49.826;6.004;2023-05-14T12:26:36;11.57;;;10.37;;
14247;SDS011;7208;49.826;6.004;2023-05-14T12:29:05;10.07;;;9.17;;
14247;SDS011;7208;49.826;6.004;2023-05-14T12:31:34;9.90;;;9.00;;
14247;SDS011;7208;49.826;6.004;2023-05-14T12:34:01;10.47;;;9.57;;
14247;SDS011;7208;49.826;6.004;2023-05-14T12:36:27;10.97;;;9.97;;
14247;SDS011;7208;49.826;6.004;2023-05-14T12:38:58;10.33;;;9.43;;
14247;SDS011;7208;49.826;6.004;2023-05-14T12:41:31;10.40;;;9.30;;
14247;SDS011;7208;49.826;6.004;2023-05-14T12:43:57;10.50;;;9.60;;
14247;SDS011;7208;49.826;6.004;2023-05-14T12:46:24;10.13;;;9.13;;
14247;SDS011;7208;49.826;6.004;2023-05-14T12:48:50;10.17;;;9.17;;
14247;SDS011;7208;49.826;6.004;2023-05-14T12:51:16;8.80;;;7.90;;
14247;SDS011;7208;49.826;6.004;2023-05-14T12:53:42;8.27;;;7.17;;
14247;SDS011;7208;49.826;6.004;2023-05-14T12:56:09;8.70;;;7.87;;
14247;SDS011;7208;49.826;6.004;2023-05-14T12:58:35;8.80;;;7.93;;
14247;SDS011;7208;49.826;6.004;2023-05-14T13:01:01;8.47;;;7.67;;
14247;SDS011;7208;49.826;6.004;2023-05-14T13:03:27;8.77;;;8.07;;
14247;SDS011;7208;49.826;6.004;2023-05-14T13:05:53;6.27;;;5.73;;
14247;SDS011;7208;49.826;6.004;2023-05-14T13:08:22;6.40;;;5.90;;
14247;SDS011;7208;49.826;6.004;2023-05-14T13:10:52;4.63;;;4.27;;
14247;SDS011;7208;49.826;6.004;2023-05-14T13:13:18;6.63;;;6.03;;
14247;SDS011;7208;49.826;6.004;2023-05-14T13:15:44;6.93;;;6.27;;
14247;SDS011;7208;49.826;6.004;2023-05-14T13:18:14;4.47;;;3.50;;
14247;SDS011;7208;49.826;6.004;2023-05-14T13:20:40;3.20;;;3.00;;
14247;SDS011;7208;49.826;6.004;2023-05-14T13:23:06;4.10;;;3.80;;
14247;SDS011;7208;49.826;6.004;2023-05-14T13:25:33;4.30;;;3.90;;
14247;SDS011;7208;49.826;6.004;2023-05-14T13:27:59;5.47;;;5.03;;
14247;SDS011;7208;49.826;6.004;2023-05-14T13:30:25;5.70;;;5.20;;
14247;SDS011;7208;49.826;6.004;2023-05-14T13:32:52;4.07;;;3.77;;
14247;SDS011;7208;49.826;6.004;2023-05-14T13:35:18;3.70;;;3.40;;
14247;SDS011;7208;49.826;6.004;2023-05-14T13:37:44;4.33;;;4.00;;
14247;SDS011;7208;49.826;6.004;2023-05-14T13:40:10;4.77;;;4.00;;
14247;SDS011;7208;49.826;6.004;2023-05-14T13:42:36;4.73;;;3.67;;
14247;SDS011;7208;49.826;6.004;2023-05-14T13:45:05;3.43;;;2.97;;
14247;SDS011;7208;49.826;6.004;2023-05-14T13:47:31;4.70;;;4.30;;
14247;SDS011;7208;49.826;6.004;2023-05-14T13:49:57;3.53;;;3.27;;
14247;SDS011;7208;49.826;6.004;2023-05-14T13:52:23;3.63;;;3.30;;
14247;SDS011;7208;49.826;6.004;2023-05-14T13:54:50;3.93;;;3.63;;
14247;SDS011;7208;49.826;6.004;2023-05-14T13:57:17;4.10;;;3.13;;
14247;SDS011;7208;49.826;6.004;2023-05-14T13:59:43;3.50;;;3.20;;
14247;SDS011;7208;49.826;6.004;2023-05-14T14:02:10;3.80;;;3.23;;
14247;SDS011;7208;49.826;6.004;2023-05-14T14:04:36;3.67;;;3.30;;
14247;SDS011;7208;49.826;6.004;2023-05-14T14:07:03;5.77;;;3.30;;
14247;SDS011;7208;49.826;6.004;2023-05-14T14:09:29;3.90;;;3.50;;
14247;SDS011;7208;49.826;6.004;2023-05-14T14:11:59;4.20;;;3.45;;
14247;SDS011;7208;49.826;6.004;2023-05-14T14:14:25;3.80;;;3.50;;
14247;SDS011;7208;49.826;6.004;2023-05-14T14:16:51;5.13;;;3.33;;
14247;SDS011;7208;49.826;6.004;2023-05-14T14:19:17;4.13;;;3.60;;
14247;SDS011;7208;49.826;6.004;2023-05-14T14:21:43;4.37;;;3.47;;
14247;SDS011;7208;49.826;6.004;2023-05-14T14:24:09;4.83;;;4.17;;
14247;SDS011;7208;49.826;6.004;2023-05-14T14:26:35;5.23;;;4.73;;
14247;SDS011;7208;49.826;6.004;2023-05-14T14:29:01;7.40;;;6.70;;
14247;SDS011;7208;49.826;6.004;2023-05-14T14:31:27;6.93;;;6.23;;
14247;SDS011;7208;49.826;6.004;2023-05-14T14:33:53;6.67;;;6.10;;
14247;SDS011;7208;49.826;6.004;2023-05-14T14:36:19;7.13;;;6.53;;
14247;SDS011;7208;49.826;6.004;2023-05-14T14:38:45;6.50;;;5.90;;
14247;SDS011;7208;49.826;6.004;2023-05-14T14:41:11;6.60;;;6.10;;
14247;SDS011;7208;49.826;6.004;2023-05-14T14:43:38;5.20;;;4.80;;
14247;SDS011;7208;49.826;6.004;2023-05-14T14:46:05;5.70;;;5.20;;
14247;SDS011;7208;49.826;6.004;2023-05-14T14:48:33;5.20;;;4.73;;
14247;SDS011;7208;49.826;6.004;2023-05-14T14:51:03;4.87;;;4.43;;
14247;SDS011;7208;49.826;6.004;2023-05-14T14:53:30;5.40;;;4.83;;
14247;SDS011;7208;49.826;6.004;2023-05-14T14:55:56;5.80;;;5.27;;
14247;SDS011;7208;49.826;6.004;2023-05-14T14:58:22;5.30;;;4.90;;
14247;SDS011;7208;49.826;6.004;2023-05-14T15:00:50;5.43;;;4.90;;
14247;SDS011;7208;49.826;6.004;2023-05-14T15:03:16;6.53;;;6.03;;
14247;SDS011;7208;49.826;6.004;2023-05-14T15:05:43;5.73;;;5.23;;
14247;SDS011;7208;49.826;6.004;2023-05-14T15:08:09;6.33;;;5.80;;
14247;SDS011;7208;49.826;6.004;2023-05-14T15:10:35;5.87;;;5.40;;
14247;SDS011;7208;49.826;6.004;2023-05-14T15:13:02;5.13;;;4.70;;
14247;SDS011;7208;49.826;6.004;2023-05-14T15:15:29;5.17;;;4.30;;